Time;durP1;ratioP1;P1;durP2;ratioP2;P2;SDS_P1;SDS_P2;PMS_P1;PMS_P2;Temp;Humidity;BMP_temperature;BMP_pressure;BME280_temperature;BME280_humidity;BME280_pressure;Samples;Min_cycle;Max_cycle;Signal;HPM_P1;HPM_P2
2023/04/22 00:01:53;;;;;;;45.40;31.58;;;;;;;;;;5018859;28;20033;-72
2023/04/22 00:04:20;;;;;;;34.80;25.10;;;;;;;;;;5015262;28;20035;-72
2023/04/22 00:06:45;;;;;;;36.13;22.58;;;;;;;;;;5007814;28;20032;-73
2023/04/22 00:09:10;;;;;;;37.55;26.05;;;;;;;;;;5021327;28;20348;-72
2023/04/22 00:11:36;;;;;;;38.90;25.08;;;;;;;;;;5007596;28;20432;-70
2023/04/22 00:14:01;;;;;;;38.97;26.23;;;;;;;;;;5009880;28;20288;-72
2023/04/22 00:16:27;;;;;;;21.33;15.63;;;;;;;;;;5019150;28;20036;-70
2023/04/22 00:18:52;;;;;;;17.77;11.23;;;;;;;;;;5020520;28;20028;-69
2023/04/22 00:21:18;;;;;;;11.48;10.15;;;;;;;;;;5019139;27;20578;-70
2023/04/22 00:23:44;;;;;;;12.48;10.02;;;;;;;;;;5019351;28;20065;-70
2023/04/22 00:26:10;;;;;;;14.18;9.73;;;;;;;;;;5012731;28;20471;-70
2023/04/22 00:28:35;;;;;;;13.40;11.00;;;;;;;;;;5012992;28;20118;-71
2023/04/22 00:31:02;;;;;;;13.88;11.50;;;;;;;;;;5020276;28;20021;-70
2023/04/22 00:33:27;;;;;;;20.35;13.63;;;;;;;;;;5017960;28;20479;-69
2023/04/22 00:35:53;;;;;;;16.52;14.10;;;;;;;;;;5016980;28;20033;-70
2023/04/22 00:38:19;;;;;;;29.02;20.25;;;;;;;;;;5017685;28;20029;-69
2023/04/22 00:40:45;;;;;;;29.77;19.45;;;;;;;;;;5017996;28;20032;-71
2023/04/22 00:43:11;;;;;;;25.02;17.75;;;;;;;;;;5011800;28;20033;-73
2023/04/22 00:45:38;;;;;;;22.10;16.85;;;;;;;;;;5014897;28;20028;-69
2023/04/22 00:48:03;;;;;;;21.60;14.57;;;;;;;;;;5016535;28;20021;-70
2023/04/22 00:50:29;;;;;;;16.33;12.45;;;;;;;;;;5015979;28;20083;-72
2023/04/22 00:52:54;;;;;;;18.20;12.15;;;;;;;;;;5015771;28;20448;-70
2023/04/22 00:55:20;;;;;;;19.00;14.45;;;;;;;;;;5014288;28;20025;-73
2023/04/22 00:57:46;;;;;;;20.42;14.18;;;;;;;;;;5012813;28;20029;-70
2023/04/22 01:00:12;;;;;;;22.92;16.00;;;;;;;;;;5015400;28;20354;-70
2023/04/22 01:02:37;;;;;;;19.67;13.07;;;;;;;;;;5010491;28;20030;-70
2023/04/22 01:05:03;;;;;;;20.73;13.98;;;;;;;;;;5014603;28;20036;-70
2023/04/22 01:07:29;;;;;;;21.52;14.73;;;;;;;;;;5016112;28;20424;-69
2023/04/22 01:09:55;;;;;;;17.75;13.80;;;;;;;;;;5017727;28;20432;-70
2023/04/22 01:12:21;;;;;;;26.40;20.08;;;;;;;;;;5016965;28;20201;-69
2023/04/22 01:14:46;;;;;;;31.50;21.90;;;;;;;;;;5015881;28;20120;-72
2023/04/22 01:17:13;;;;;;;36.25;24.90;;;;;;;;;;5015142;28;20108;-71
2023/04/22 01:19:40;;;;;;;35.38;23.02;;;;;;;;;;5014468;28;20120;-73
2023/04/22 01:22:06;;;;;;;18.05;15.48;;;;;;;;;;5015634;28;20030;-71
2023/04/22 01:24:32;;;;;;;18.73;12.82;;;;;;;;;;5015064;28;20025;-68
2023/04/22 01:26:57;;;;;;;15.07;11.13;;;;;;;;;;5013199;28;20025;-72
2023/04/22 01:29:23;;;;;;;19.35;10.60;;;;;;;;;;5012639;28;20068;-69
2023/04/22 01:31:48;;;;;;;14.73;10.02;;;;;;;;;;5014256;28;20108;-70
2023/04/22 01:34:14;;;;;;;15.75;10.73;;;;;;;;;;5013566;28;20304;-72
2023/04/22 01:36:39;;;;;;;14.38;10.73;;;;;;;;;;5010372;28;20029;-70
2023/04/22 01:39:06;;;;;;;18.02;11.32;;;;;;;;;;5013709;28;20036;-73
2023/04/22 01:41:31;;;;;;;13.52;10.43;;;;;;;;;;5008027;28;20036;-74
2023/04/22 01:43:57;;;;;;;12.68;11.10;;;;;;;;;;5004919;28;20038;-70
2023/04/22 01:46:22;;;;;;;13.73;10.93;;;;;;;;;;5008116;28;20119;-70
2023/04/22 01:48:50;;;;;;;15.68;10.48;;;;;;;;;;5011951;28;20215;-70
2023/04/22 01:51:22;;;;;;;18.52;12.43;;;;;;;;;;5013667;28;20014;-70
2023/04/22 01:53:48;;;;;;;18.05;12.85;;;;;;;;;;5014013;28;20112;-70
2023/04/22 01:56:13;;;;;;;25.42;13.30;;;;;;;;;;5015574;28;20116;-70
2023/04/22 01:58:39;;;;;;;23.55;16.60;;;;;;;;;;5013968;28;20070;-70
2023/04/22 02:01:05;;;;;;;25.45;16.45;;;;;;;;;;5006206;28;20030;-70
2023/04/22 02:03:30;;;;;;;32.80;21.60;;;;;;;;;;5008635;28;20030;-70
2023/04/22 02:05:56;;;;;;;26.70;18.88;;;;;;;;;;5015138;28;20459;-73
2023/04/22 02:08:22;;;;;;;26.60;17.80;;;;;;;;;;5016323;28;20057;-71
2023/04/22 02:10:47;;;;;;;26.60;16.58;;;;;;;;;;5014754;28;20041;-68
2023/04/22 02:13:12;;;;;;;20.25;13.38;;;;;;;;;;5015104;28;20329;-73
2023/04/22 02:15:39;;;;;;;17.23;11.85;;;;;;;;;;5015033;28;20101;-69
2023/04/22 02:18:05;;;;;;;17.60;11.25;;;;;;;;;;5016068;28;20030;-70
2023/04/22 02:20:30;;;;;;;12.07;10.77;;;;;;;;;;5015074;28;20028;-72
2023/04/22 02:22:55;;;;;;;17.58;13.10;;;;;;;;;;5010283;28;20026;-70
2023/04/22 02:25:21;;;;;;;16.63;12.05;;;;;;;;;;5002398;28;20065;-75
2023/04/22 02:27:46;;;;;;;18.95;12.45;;;;;;;;;;5013917;28;20109;-70
2023/04/22 02:30:11;;;;;;;14.27;9.75;;;;;;;;;;5014534;28;20077;-71
2023/04/22 02:32:38;;;;;;;14.48;10.68;;;;;;;;;;5011776;28;20030;-70
2023/04/22 02:35:04;;;;;;;13.02;11.55;;;;;;;;;;5011865;28;20029;-73
2023/04/22 02:37:30;;;;;;;16.83;11.05;;;;;;;;;;5015952;28;20029;-70
2023/04/22 02:39:55;;;;;;;13.13;10.00;;;;;;;;;;5007683;28;20025;-73
2023/04/22 02:42:20;;;;;;;19.38;13.18;;;;;;;;;;5002799;28;20029;-69
2023/04/22 02:44:46;;;;;;;13.63;10.70;;;;;;;;;;5014154;28;20064;-68
2023/04/22 02:47:11;;;;;;;13.73;9.82;;;;;;;;;;5011867;28;20021;-71
2023/04/22 02:49:36;;;;;;;13.07;9.18;;;;;;;;;;5012491;28;20034;-69
2023/04/22 02:52:02;;;;;;;16.60;11.05;;;;;;;;;;5014254;28;20033;-68
2023/04/22 02:54:27;;;;;;;13.43;11.07;;;;;;;;;;5014626;28;20029;-70
2023/04/22 02:56:52;;;;;;;15.57;10.38;;;;;;;;;;5012562;28;20330;-69
2023/04/22 02:59:18;;;;;;;10.77;9.27;;;;;;;;;;5015103;28;20069;-71
2023/04/22 03:01:43;;;;;;;13.30;10.20;;;;;;;;;;5013280;28;20028;-73
2023/04/22 03:04:10;;;;;;;12.27;9.98;;;;;;;;;;5007486;28;20025;-74
2023/04/22 03:06:36;;;;;;;11.70;10.15;;;;;;;;;;5005659;28;20129;-69
2023/04/22 03:09:01;;;;;;;13.27;9.38;;;;;;;;;;5013970;28;20162;-69
2023/04/22 03:11:27;;;;;;;11.48;9.35;;;;;;;;;;5013601;28;20054;-68
2023/04/22 03:13:52;;;;;;;13.50;10.27;;;;;;;;;;5014306;28;20029;-69
2023/04/22 03:16:17;;;;;;;15.80;11.13;;;;;;;;;;5012733;28;20121;-69
2023/04/22 03:18:43;;;;;;;12.00;10.02;;;;;;;;;;5015079;28;20026;-72
2023/04/22 03:21:08;;;;;;;12.80;10.48;;;;;;;;;;5011712;28;20037;-71
2023/04/22 03:23:34;;;;;;;14.35;10.93;;;;;;;;;;5009823;28;20458;-70
2023/04/22 03:25:59;;;;;;;14.13;10.35;;;;;;;;;;5007782;28;20048;-71
2023/04/22 03:28:24;;;;;;;16.83;12.05;;;;;;;;;;5014099;28;20492;-71
2023/04/22 03:30:50;;;;;;;22.25;17.80;;;;;;;;;;5013022;28;20060;-69
2023/04/22 03:33:17;;;;;;;18.25;14.07;;;;;;;;;;5006925;28;20017;-69
2023/04/22 03:35:42;;;;;;;57.05;33.95;;;;;;;;;;5008082;28;20022;-69
2023/04/22 03:38:07;;;;;;;86.32;50.90;;;;;;;;;;5013148;28;20034;-69
2023/04/22 03:40:33;;;;;;;94.10;58.45;;;;;;;;;;5002169;28;20026;-73
2023/04/22 03:42:58;;;;;;;94.82;69.32;;;;;;;;;;5010589;28;20045;-71
2023/04/22 03:45:23;;;;;;;74.97;53.25;;;;;;;;;;5014394;28;20044;-69
2023/04/22 03:47:49;;;;;;;59.97;44.97;;;;;;;;;;5014331;28;20025;-73
2023/04/22 03:50:14;;;;;;;73.47;53.08;;;;;;;;;;5013270;28;20037;-69
2023/04/22 03:52:40;;;;;;;177.05;109.75;;;;;;;;;;5013341;28;20093;-70
2023/04/22 03:55:05;;;;;;;92.03;66.75;;;;;;;;;;5012791;28;20167;-73
2023/04/22 03:57:30;;;;;;;72.88;56.63;;;;;;;;;;5010556;28;20029;-68
2023/04/22 03:59:56;;;;;;;54.22;39.33;;;;;;;;;;5011842;28;20026;-70
2023/04/22 04:02:21;;;;;;;29.42;22.77;;;;;;;;;;5006415;28;20025;-69
2023/04/22 04:04:46;;;;;;;19.52;15.55;;;;;;;;;;5013194;28;20122;-69
2023/04/22 04:07:12;;;;;;;19.33;12.40;;;;;;;;;;5013663;28;20017;-73
2023/04/22 04:09:38;;;;;;;14.80;11.70;;;;;;;;;;5010262;28;20420;-73
2023/04/22 04:12:03;;;;;;;16.77;11.40;;;;;;;;;;5001017;28;20036;-69
2023/04/22 04:14:29;;;;;;;14.57;10.95;;;;;;;;;;4999524;28;20086;-70
2023/04/22 04:16:54;;;;;;;15.98;11.40;;;;;;;;;;4999193;28;20471;-70
2023/04/22 04:19:20;;;;;;;19.05;11.95;;;;;;;;;;4999683;28;20024;-71
2023/04/22 04:21:45;;;;;;;15.43;12.07;;;;;;;;;;4997196;28;20033;-72
2023/04/22 04:24:11;;;;;;;20.90;16.10;;;;;;;;;;5001499;28;20025;-74
2023/04/22 04:26:36;;;;;;;27.92;20.30;;;;;;;;;;5001217;28;20053;-73
2023/04/22 04:29:02;;;;;;;35.03;27.70;;;;;;;;;;5001561;28;20361;-73
2023/04/22 04:31:27;;;;;;;24.23;18.13;;;;;;;;;;5002630;28;20480;-70
2023/04/22 04:33:53;;;;;;;18.27;14.65;;;;;;;;;;5001592;28;20036;-69
2023/04/22 04:36:18;;;;;;;17.60;12.75;;;;;;;;;;5000546;28;20082;-73
2023/04/22 04:38:45;;;;;;;19.65;13.60;;;;;;;;;;5002787;28;20025;-71
2023/04/22 04:41:11;;;;;;;26.90;16.48;;;;;;;;;;5004085;28;20056;-74
2023/04/22 04:43:37;;;;;;;19.67;14.35;;;;;;;;;;5002330;28;20057;-69
2023/04/22 04:46:02;;;;;;;42.00;29.60;;;;;;;;;;5007283;28;20036;-69
2023/04/22 04:48:28;;;;;;;50.10;36.05;;;;;;;;;;5006498;28;20025;-70
2023/04/22 04:50:53;;;;;;;167.75;115.15;;;;;;;;;;5000706;28;20034;-72
2023/04/22 04:53:20;;;;;;;99.38;71.68;;;;;;;;;;5002189;28;20032;-69
2023/04/22 04:55:46;;;;;;;63.65;46.83;;;;;;;;;;4999643;28;20041;-74
2023/04/22 04:58:11;;;;;;;50.42;36.78;;;;;;;;;;5005614;28;20034;-71
2023/04/22 05:00:36;;;;;;;60.33;47.60;;;;;;;;;;5011686;28;20144;-69
2023/04/22 05:03:02;;;;;;;40.70;32.50;;;;;;;;;;5015356;28;20061;-73
2023/04/22 05:05:28;;;;;;;39.10;29.98;;;;;;;;;;5017016;28;20053;-70
2023/04/22 05:07:53;;;;;;;42.55;32.72;;;;;;;;;;5000074;28;20022;-71
2023/04/22 05:10:19;;;;;;;40.78;29.67;;;;;;;;;;4998164;28;20090;-72
2023/04/22 05:12:46;;;;;;;38.88;29.63;;;;;;;;;;5003111;28;20033;-69
2023/04/22 05:15:12;;;;;;;33.85;24.13;;;;;;;;;;5005791;28;20281;-70
2023/04/22 05:17:37;;;;;;;29.25;22.85;;;;;;;;;;5005424;28;21150;-69
2023/04/22 05:20:02;;;;;;;28.48;21.10;;;;;;;;;;5002723;28;20437;-71
2023/04/22 05:22:28;;;;;;;27.45;21.50;;;;;;;;;;5003572;28;20052;-70
2023/04/22 05:24:53;;;;;;;26.90;21.27;;;;;;;;;;5013809;28;20033;-69
2023/04/22 05:27:19;;;;;;;29.75;22.25;;;;;;;;;;5017353;28;20029;-69
2023/04/22 05:29:44;;;;;;;35.33;22.67;;;;;;;;;;5015437;28;20045;-72
2023/04/22 05:32:09;;;;;;;28.67;22.17;;;;;;;;;;5002696;28;20048;-70
2023/04/22 05:34:35;;;;;;;30.85;22.17;;;;;;;;;;5006549;28;20041;-71
2023/04/22 05:37:03;;;;;;;49.55;38.17;;;;;;;;;;5015091;28;20025;-70
2023/04/22 05:39:29;;;;;;;100.90;81.00;;;;;;;;;;5014571;28;20032;-70
2023/04/22 05:41:54;;;;;;;120.70;91.15;;;;;;;;;;5013286;28;20096;-71
2023/04/22 05:44:19;;;;;;;72.38;57.70;;;;;;;;;;5013911;28;20029;-69
2023/04/22 05:46:45;;;;;;;54.10;41.63;;;;;;;;;;5015076;28;20612;-72
2023/04/22 05:49:11;;;;;;;50.92;40.00;;;;;;;;;;5015218;28;20732;-71
2023/04/22 05:51:36;;;;;;;43.47;34.47;;;;;;;;;;5011876;28;20395;-69
2023/04/22 05:54:01;;;;;;;48.88;35.00;;;;;;;;;;5007370;28;20451;-69
2023/04/22 05:56:27;;;;;;;34.58;30.88;;;;;;;;;;5013848;28;20353;-69
2023/04/22 05:58:52;;;;;;;33.60;27.90;;;;;;;;;;5011163;28;20026;-70
2023/04/22 06:01:17;;;;;;;30.55;25.20;;;;;;;;;;4997465;28;20032;-70
2023/04/22 06:03:43;;;;;;;28.38;24.88;;;;;;;;;;5001086;28;20060;-70
2023/04/22 06:06:08;;;;;;;30.80;24.00;;;;;;;;;;5004986;28;20463;-71
2023/04/22 06:08:33;;;;;;;27.77;21.95;;;;;;;;;;5013973;28;20086;-70
2023/04/22 06:10:59;;;;;;;21.98;18.75;;;;;;;;;;5008362;28;20030;-73
2023/04/22 06:13:25;;;;;;;24.88;17.98;;;;;;;;;;5002218;28;20459;-73
2023/04/22 06:15:50;;;;;;;28.40;21.23;;;;;;;;;;5001412;28;20029;-71
2023/04/22 06:18:16;;;;;;;30.80;22.50;;;;;;;;;;5002031;28;20029;-72
2023/04/22 06:20:41;;;;;;;32.80;21.13;;;;;;;;;;5001805;28;20026;-70
2023/04/22 06:23:06;;;;;;;22.65;18.90;;;;;;;;;;5001288;28;20018;-70
2023/04/22 06:25:32;;;;;;;16.85;13.88;;;;;;;;;;5001969;28;20403;-71
2023/04/22 06:27:58;;;;;;;18.83;13.63;;;;;;;;;;5001553;28;20069;-71
2023/04/22 06:30:23;;;;;;;18.98;11.68;;;;;;;;;;5000759;28;20030;-72
2023/04/22 06:32:50;;;;;;;14.27;11.75;;;;;;;;;;5000540;28;20056;-74
2023/04/22 06:35:15;;;;;;;17.48;13.65;;;;;;;;;;5001155;28;20074;-71
2023/04/22 06:37:43;;;;;;;27.02;18.48;;;;;;;;;;5003709;28;20055;-71
2023/04/22 06:40:09;;;;;;;26.17;19.92;;;;;;;;;;5001803;28;20032;-72
2023/04/22 06:42:37;;;;;;;28.70;20.70;;;;;;;;;;5000035;28;20033;-70
2023/04/22 06:45:03;;;;;;;32.28;20.30;;;;;;;;;;5001149;28;20037;-70
2023/04/22 06:47:28;;;;;;;25.00;18.17;;;;;;;;;;5001949;28;20192;-70
2023/04/22 06:49:54;;;;;;;25.40;15.93;;;;;;;;;;5001192;28;20029;-74
2023/04/22 06:52:20;;;;;;;19.63;14.35;;;;;;;;;;5001422;28;20035;-70
2023/04/22 06:54:45;;;;;;;20.13;13.65;;;;;;;;;;5001946;28;20025;-70
2023/04/22 06:57:11;;;;;;;22.52;15.55;;;;;;;;;;5002422;28;20128;-70
2023/04/22 06:59:36;;;;;;;25.13;16.15;;;;;;;;;;5001683;28;20025;-70
2023/04/22 07:02:01;;;;;;;23.63;14.10;;;;;;;;;;5001851;28;20424;-69
2023/04/22 07:04:28;;;;;;;21.67;15.52;;;;;;;;;;5006239;28;20875;-73
2023/04/22 07:06:53;;;;;;;31.73;18.08;;;;;;;;;;5006436;28;20089;-71
2023/04/22 07:09:19;;;;;;;22.52;14.98;;;;;;;;;;5007861;28;20386;-73
2023/04/22 07:11:45;;;;;;;17.48;7.72;;;;;;;;;;5009953;28;20030;-71
2023/04/22 07:14:10;;;;;;;13.32;6.88;;;;;;;;;;5007464;28;21362;-70
2023/04/22 07:16:37;;;;;;;13.77;7.65;;;;;;;;;;5010874;28;20037;-71
2023/04/22 07:19:04;;;;;;;14.15;8.15;;;;;;;;;;5014912;28;20021;-72
2023/04/22 07:21:31;;;;;;;13.55;7.57;;;;;;;;;;5005404;28;20060;-71
2023/04/22 07:23:56;;;;;;;12.05;8.27;;;;;;;;;;5011839;28;20042;-71
2023/04/22 07:26:22;;;;;;;16.25;6.72;;;;;;;;;;5014634;28;20033;-71
2023/04/22 07:28:47;;;;;;;16.08;7.35;;;;;;;;;;5013961;28;20056;-71
2023/04/22 07:31:12;;;;;;;13.73;5.68;;;;;;;;;;5013937;28;20018;-72
2023/04/22 07:33:38;;;;;;;19.13;5.90;;;;;;;;;;5013995;28;20061;-73
2023/04/22 07:36:03;;;;;;;12.20;6.22;;;;;;;;;;5004335;28;20072;-71
2023/04/22 07:38:29;;;;;;;17.20;6.32;;;;;;;;;;5007334;28;20056;-74
2023/04/22 07:40:54;;;;;;;13.50;6.13;;;;;;;;;;5013733;28;20057;-71
2023/04/22 07:43:20;;;;;;;12.05;6.05;;;;;;;;;;5013661;28;20035;-70
2023/04/22 07:45:45;;;;;;;13.32;5.88;;;;;;;;;;5003195;28;20030;-69
2023/04/22 07:48:10;;;;;;;16.73;5.47;;;;;;;;;;5000752;28;20068;-71
2023/04/22 07:50:36;;;;;;;7.88;4.97;;;;;;;;;;5009289;28;20038;-70
2023/04/22 07:53:01;;;;;;;9.50;5.10;;;;;;;;;;5009355;28;20068;-71
2023/04/22 07:55:27;;;;;;;11.73;5.68;;;;;;;;;;4998305;28;20042;-73
2023/04/22 07:57:52;;;;;;;11.88;5.03;;;;;;;;;;5002831;28;20132;-70
2023/04/22 08:00:17;;;;;;;9.85;5.30;;;;;;;;;;5015170;28;20030;-69
2023/04/22 08:02:43;;;;;;;9.82;4.63;;;;;;;;;;5005509;28;20032;-73
2023/04/22 08:05:08;;;;;;;10.75;4.30;;;;;;;;;;5015310;28;20080;-69
2023/04/22 08:07:33;;;;;;;12.27;4.85;;;;;;;;;;5016015;28;20028;-69
2023/04/22 08:09:59;;;;;;;12.93;4.70;;;;;;;;;;5015143;28;20033;-70
2023/04/22 08:12:24;;;;;;;17.02;4.55;;;;;;;;;;5011158;28;20044;-69
2023/04/22 08:14:50;;;;;;;10.77;5.28;;;;;;;;;;5004134;28;20029;-71
2023/04/22 08:17:16;;;;;;;10.75;4.47;;;;;;;;;;5004009;28;20030;-69
2023/04/22 08:19:41;;;;;;;12.38;6.18;;;;;;;;;;5004407;28;20056;-70
2023/04/22 08:22:06;;;;;;;12.02;5.07;;;;;;;;;;5003479;28;20029;-70
2023/04/22 08:24:32;;;;;;;8.98;4.45;;;;;;;;;;5004099;28;20428;-70
2023/04/22 08:26:57;;;;;;;12.10;4.32;;;;;;;;;;5000618;28;20076;-69
2023/04/22 08:29:23;;;;;;;8.50;4.18;;;;;;;;;;5004637;28;20061;-70
2023/04/22 08:31:48;;;;;;;14.38;4.90;;;;;;;;;;5002366;28;20025;-71
2023/04/22 08:34:14;;;;;;;8.65;3.58;;;;;;;;;;5002716;28;20036;-70
2023/04/22 08:36:39;;;;;;;7.90;3.83;;;;;;;;;;5004867;28;20353;-71
2023/04/22 08:39:04;;;;;;;6.95;3.90;;;;;;;;;;5004552;28;20025;-71
2023/04/22 08:41:32;;;;;;;9.98;4.10;;;;;;;;;;5003232;28;20026;-72
2023/04/22 08:43:57;;;;;;;9.98;4.07;;;;;;;;;;5002921;28;20029;-71
2023/04/22 08:46:24;;;;;;;11.07;4.68;;;;;;;;;;5003293;28;20229;-71
2023/04/22 08:48:50;;;;;;;10.15;4.03;;;;;;;;;;5004751;28;20064;-72
2023/04/22 08:51:16;;;;;;;6.35;3.67;;;;;;;;;;5004173;28;20370;-70
2023/04/22 08:53:45;;;;;;;9.32;4.43;;;;;;;;;;5003651;28;20025;-71
2023/04/22 08:56:14;;;;;;;12.60;4.60;;;;;;;;;;5002607;28;20051;-71
2023/04/22 08:58:40;;;;;;;7.10;3.90;;;;;;;;;;5002560;28;20037;-71
2023/04/22 09:01:06;;;;;;;9.50;4.35;;;;;;;;;;5003934;28;20022;-72
2023/04/22 09:03:32;;;;;;;7.53;4.40;;;;;;;;;;5002862;28;20428;-72
2023/04/22 09:05:58;;;;;;;12.75;4.28;;;;;;;;;;5003946;28;20601;-72
2023/04/22 09:08:24;;;;;;;11.05;4.88;;;;;;;;;;5002419;28;20161;-73
2023/04/22 09:10:49;;;;;;;9.52;4.47;;;;;;;;;;5003220;28;20026;-73
2023/04/22 09:13:15;;;;;;;10.25;3.95;;;;;;;;;;5002695;28;20029;-71
2023/04/22 09:15:41;;;;;;;7.43;3.92;;;;;;;;;;5004970;28;20048;-73
2023/04/22 09:18:07;;;;;;;5.97;4.18;;;;;;;;;;5002510;28;20021;-74
2023/04/22 09:20:33;;;;;;;7.90;4.47;;;;;;;;;;5000358;28;20022;-73
2023/04/22 09:23:01;;;;;;;8.65;3.47;;;;;;;;;;5003061;28;20040;-72
2023/04/22 09:25:27;;;;;;;10.80;4.43;;;;;;;;;;5008542;28;20428;-72
2023/04/22 09:27:52;;;;;;;9.77;3.42;;;;;;;;;;5003132;28;20041;-73
2023/04/22 09:30:22;;;;;;;7.47;3.13;;;;;;;;;;5002694;28;20586;-74
2023/04/22 09:32:55;;;;;;;11.82;3.47;;;;;;;;;;5002282;28;20037;-75
2023/04/22 09:35:36;;;;;;;7.00;3.65;;;;;;;;;;5013558;28;20352;-73
2023/04/22 09:38:06;;;;;;;5.95;3.22;;;;;;;;;;5015760;28;20419;-72
2023/04/22 09:40:33;;;;;;;9.05;3.83;;;;;;;;;;5005907;28;20082;-74
2023/04/22 09:43:00;;;;;;;7.88;4.60;;;;;;;;;;5016285;28;20104;-73
2023/04/22 09:45:26;;;;;;;8.45;3.20;;;;;;;;;;5015070;28;20373;-71
2023/04/22 09:47:52;;;;;;;5.47;3.10;;;;;;;;;;5015932;28;20018;-73
2023/04/22 09:50:23;;;;;;;4.93;3.00;;;;;;;;;;5013285;28;20093;-72
2023/04/22 09:52:53;;;;;;;11.52;4.90;;;;;;;;;;5014349;28;20111;-72
2023/04/22 09:55:20;;;;;;;9.98;5.60;;;;;;;;;;5011870;28;20025;-74
2023/04/22 09:57:46;;;;;;;9.07;5.60;;;;;;;;;;5013500;28;20036;-72
2023/04/22 10:00:12;;;;;;;10.20;5.13;;;;;;;;;;5014425;28;20017;-71
2023/04/22 10:02:38;;;;;;;10.43;6.88;;;;;;;;;;5015206;28;20117;-72
2023/04/22 10:05:03;;;;;;;8.95;5.50;;;;;;;;;;5014249;28;20030;-71
2023/04/22 10:07:30;;;;;;;10.95;6.60;;;;;;;;;;5016231;28;20036;-73
2023/04/22 10:09:56;;;;;;;8.82;5.00;;;;;;;;;;5016551;28;20021;-71
2023/04/22 10:12:21;;;;;;;9.95;5.53;;;;;;;;;;5014299;28;20034;-72
2023/04/22 10:14:47;;;;;;;8.85;5.50;;;;;;;;;;5011989;28;20029;-71
2023/04/22 10:17:12;;;;;;;9.15;4.65;;;;;;;;;;5013333;28;20164;-73
2023/04/22 10:19:38;;;;;;;7.90;4.65;;;;;;;;;;5012418;28;20025;-72
2023/04/22 10:22:04;;;;;;;10.52;4.35;;;;;;;;;;5012315;28;20038;-74
2023/04/22 10:24:34;;;;;;;8.63;4.47;;;;;;;;;;5014919;28;20029;-72
2023/04/22 10:27:01;;;;;;;8.80;4.20;;;;;;;;;;5016638;28;20032;-72
2023/04/22 10:29:34;;;;;;;6.90;3.85;;;;;;;;;;5013253;28;20065;-72
2023/04/22 10:32:04;;;;;;;8.80;4.43;;;;;;;;;;5013650;28;20352;-72
2023/04/22 10:34:33;;;;;;;6.90;3.78;;;;;;;;;;5015191;28;20041;-72
2023/04/22 10:37:00;;;;;;;6.75;3.60;;;;;;;;;;5013269;28;20105;-72
2023/04/22 10:39:26;;;;;;;6.07;4.97;;;;;;;;;;5015621;28;20042;-72
2023/04/22 10:41:52;;;;;;;6.20;4.38;;;;;;;;;;5014184;28;20030;-73
2023/04/22 10:44:18;;;;;;;10.52;3.90;;;;;;;;;;5013047;28;20029;-76
2023/04/22 10:46:51;;;;;;;6.10;5.50;;;;;;;;;;5015688;28;20037;-71
2023/04/22 10:49:23;;;;;;;8.23;3.78;;;;;;;;;;5010598;28;20018;-71
2023/04/22 10:51:51;;;;;;;12.90;6.07;;;;;;;;;;5011427;28;20507;-73
2023/04/22 10:54:19;;;;;;;8.60;4.28;;;;;;;;;;5011673;28;20064;-71
2023/04/22 10:57:00;;;;;;;10.30;6.57;;;;;;;;;;5011852;28;20037;-74
2023/04/22 10:59:26;;;;;;;6.40;3.85;;;;;;;;;;5011880;28;20041;-71
2023/04/22 11:01:51;;;;;;;9.07;3.58;;;;;;;;;;5014956;28;20033;-72
2023/04/22 11:04:21;;;;;;;5.82;3.50;;;;;;;;;;5012373;28;20072;-72
2023/04/22 11:07:07;;;;;;;9.07;3.85;;;;;;;;;;5013743;28;20456;-71
2023/04/22 11:09:32;;;;;;;9.45;3.97;;;;;;;;;;5021084;28;20045;-72
2023/04/22 11:12:16;;;;;;;9.90;3.97;;;;;;;;;;5014770;28;20029;-74
2023/04/22 11:14:41;;;;;;;12.18;4.32;;;;;;;;;;5013782;28;20026;-71
2023/04/22 11:17:07;;;;;;;6.03;3.50;;;;;;;;;;5013945;28;20040;-71
2023/04/22 11:19:32;;;;;;;10.15;4.00;;;;;;;;;;5011914;28;20050;-72
2023/04/22 11:21:58;;;;;;;7.32;4.00;;;;;;;;;;5013038;28;20444;-71
2023/04/22 11:24:23;;;;;;;8.40;3.50;;;;;;;;;;5014527;28;20440;-71
2023/04/22 11:26:48;;;;;;;9.43;4.95;;;;;;;;;;5013147;28;20443;-74
2023/04/22 11:29:14;;;;;;;10.30;4.30;;;;;;;;;;5015810;28;20117;-73
2023/04/22 11:31:45;;;;;;;7.85;4.15;;;;;;;;;;5013786;28;20064;-71
2023/04/22 11:34:10;;;;;;;8.60;3.95;;;;;;;;;;5013378;28;20052;-72
2023/04/22 11:36:35;;;;;;;8.98;3.75;;;;;;;;;;5015033;28;20029;-73
2023/04/22 11:39:01;;;;;;;8.35;4.03;;;;;;;;;;5011645;28;20062;-72
2023/04/22 11:41:26;;;;;;;7.88;3.85;;;;;;;;;;5013312;28;20063;-71
2023/04/22 11:43:53;;;;;;;11.50;7.03;;;;;;;;;;5013071;28;20025;-72
2023/04/22 11:46:29;;;;;;;9.13;4.88;;;;;;;;;;5012563;28;20515;-73
2023/04/22 11:49:09;;;;;;;16.20;4.30;;;;;;;;;;5012045;28;20013;-71
2023/04/22 11:51:35;;;;;;;6.70;5.07;;;;;;;;;;5013257;28;20032;-72
2023/04/22 11:54:00;;;;;;;5.93;4.22;;;;;;;;;;5011664;28;20017;-72
2023/04/22 11:56:26;;;;;;;7.97;3.83;;;;;;;;;;5010984;28;20124;-75
2023/04/22 11:58:52;;;;;;;8.25;3.53;;;;;;;;;;5014341;28;20014;-71
2023/04/22 12:01:17;;;;;;;6.95;3.78;;;;;;;;;;5011525;28;20125;-73
2023/04/22 12:03:42;;;;;;;8.60;3.83;;;;;;;;;;5014018;28;20109;-73
2023/04/22 12:06:08;;;;;;;7.97;3.95;;;;;;;;;;5012545;28;20060;-74
2023/04/22 12:08:35;;;;;;;7.35;4.10;;;;;;;;;;5014383;28;20065;-72
2023/04/22 12:11:04;;;;;;;10.30;4.05;;;;;;;;;;5014170;28;20030;-71
2023/04/22 12:13:35;;;;;;;10.38;4.90;;;;;;;;;;5011765;28;20043;-72
2023/04/22 12:16:01;;;;;;;7.38;4.40;;;;;;;;;;5010873;28;20029;-72
2023/04/22 12:18:37;;;;;;;11.57;6.45;;;;;;;;;;5013373;28;20048;-72
2023/04/22 12:21:05;;;;;;;13.50;10.35;;;;;;;;;;5012209;28;20030;-72
2023/04/22 12:23:40;;;;;;;6.27;3.73;;;;;;;;;;5012147;28;20355;-72
2023/04/22 12:26:05;;;;;;;7.22;3.70;;;;;;;;;;5011633;28;20085;-72
2023/04/22 12:28:30;;;;;;;12.10;6.22;;;;;;;;;;5012463;28;20053;-71
2023/04/22 12:30:56;;;;;;;10.60;4.22;;;;;;;;;;5011233;28;20108;-71
2023/04/22 12:33:21;;;;;;;16.55;5.10;;;;;;;;;;5013979;28;20033;-71
2023/04/22 12:35:49;;;;;;;14.20;6.78;;;;;;;;;;5012301;28;20038;-71
2023/04/22 12:38:14;;;;;;;12.70;5.72;;;;;;;;;;5010992;28;20022;-72
2023/04/22 12:40:40;;;;;;;5.28;3.78;;;;;;;;;;5004822;28;20084;-72
2023/04/22 12:43:05;;;;;;;7.55;3.47;;;;;;;;;;5000307;28;20474;-71
2023/04/22 12:45:30;;;;;;;9.05;6.20;;;;;;;;;;5002639;28;20049;-74
2023/04/22 12:47:56;;;;;;;7.20;4.10;;;;;;;;;;5000042;28;20022;-72
2023/04/22 12:50:22;;;;;;;14.20;4.78;;;;;;;;;;5003309;28;20053;-74
2023/04/22 12:52:47;;;;;;;9.45;4.13;;;;;;;;;;5004206;28;20439;-72
2023/04/22 12:55:12;;;;;;;9.55;4.15;;;;;;;;;;5004143;28;20040;-74
2023/04/22 12:57:38;;;;;;;6.30;3.50;;;;;;;;;;5002717;28;20108;-71
2023/04/22 13:00:05;;;;;;;5.57;3.50;;;;;;;;;;5002727;28;20030;-73
2023/04/22 13:02:31;;;;;;;6.65;3.35;;;;;;;;;;5001876;28;20021;-71
2023/04/22 13:04:56;;;;;;;6.45;3.67;;;;;;;;;;5002851;28;20053;-73
2023/04/22 13:07:22;;;;;;;9.45;3.85;;;;;;;;;;5003023;28;20083;-72
2023/04/22 13:09:47;;;;;;;6.22;3.95;;;;;;;;;;5002836;28;20028;-75
2023/04/22 13:12:13;;;;;;;22.95;15.05;;;;;;;;;;5000534;28;20022;-73
2023/04/22 13:14:38;;;;;;;14.80;9.15;;;;;;;;;;5006980;28;20056;-71
2023/04/22 13:17:03;;;;;;;8.60;4.20;;;;;;;;;;5013417;28;20029;-70
2023/04/22 13:19:30;;;;;;;8.20;4.00;;;;;;;;;;5014800;28;20062;-71
2023/04/22 13:21:56;;;;;;;13.18;9.13;;;;;;;;;;5012795;28;20040;-71
2023/04/22 13:24:21;;;;;;;12.05;8.88;;;;;;;;;;5011008;28;20330;-72
2023/04/22 13:26:46;;;;;;;11.90;9.73;;;;;;;;;;5001460;28;20093;-73
2023/04/22 13:29:13;;;;;;;9.68;6.75;;;;;;;;;;5003922;28;20037;-71
2023/04/22 13:31:41;;;;;;;8.93;4.28;;;;;;;;;;5011786;28;20391;-71
2023/04/22 13:34:06;;;;;;;6.45;3.97;;;;;;;;;;4998826;28;20033;-70
2023/04/22 13:36:32;;;;;;;7.47;3.58;;;;;;;;;;5015524;28;20044;-72
2023/04/22 13:38:57;;;;;;;6.38;4.78;;;;;;;;;;5009529;28;21002;-71
2023/04/22 13:41:22;;;;;;;6.22;4.05;;;;;;;;;;5002724;28;20033;-73
2023/04/22 13:43:53;;;;;;;5.88;4.90;;;;;;;;;;5002422;28;20112;-72
2023/04/22 13:46:18;;;;;;;8.70;4.40;;;;;;;;;;5002313;28;20033;-72
2023/04/22 13:48:43;;;;;;;9.65;4.07;;;;;;;;;;5002037;28;20037;-75
2023/04/22 13:51:09;;;;;;;13.15;3.92;;;;;;;;;;5002255;28;20519;-72
2023/04/22 13:53:34;;;;;;;5.05;3.30;;;;;;;;;;5003015;28;20037;-71
2023/04/22 13:55:59;;;;;;;5.57;3.30;;;;;;;;;;5001969;28;23258;-71
2023/04/22 13:58:25;;;;;;;8.40;4.65;;;;;;;;;;5002308;28;20036;-71
2023/04/22 14:00:50;;;;;;;8.65;3.97;;;;;;;;;;5001636;28;20357;-74
2023/04/22 14:03:16;;;;;;;7.60;3.70;;;;;;;;;;5003059;28;20056;-70
2023/04/22 14:05:41;;;;;;;6.63;4.18;;;;;;;;;;5002859;28;20018;-72
2023/04/22 14:08:06;;;;;;;6.32;3.42;;;;;;;;;;5002010;28;20656;-74
2023/04/22 14:10:32;;;;;;;8.45;4.13;;;;;;;;;;5001371;28;20401;-73
2023/04/22 14:12:57;;;;;;;4.20;3.53;;;;;;;;;;5001988;28;20473;-71
2023/04/22 14:15:23;;;;;;;3.22;2.80;;;;;;;;;;5002246;28;20034;-75
2023/04/22 14:17:48;;;;;;;5.93;2.90;;;;;;;;;;5002976;28;20087;-73
2023/04/22 14:20:13;;;;;;;5.43;3.35;;;;;;;;;;5002216;28;20029;-71
2023/04/22 14:22:39;;;;;;;5.30;3.35;;;;;;;;;;5000363;28;20410;-71